Time;durP1;ratioP1;P1;durP2;ratioP2;P2;SDS_P1;SDS_P2;PMS_P1;PMS_P2;Temp;Humidity;BMP_temperature;BMP_pressure;BME280_temperature;BME280_humidity;BME280_pressure;Samples;Min_cycle;Max_cycle;Signal;HPM_P1;HPM_P2
2021/12/04 00:00:00;;;;;;;8.50;1.85;;;;;;;3.30;96.99;97444.84;5063339;28;20028;-69
2021/12/04 00:02:26;;;;;;;3.67;1.70;;;;;;;3.33;96.43;97444.81;5068208;28;20040;-69
2021/12/04 00:04:53;;;;;;;2.13;1.52;;;;;;;3.23;96.77;97432.75;5072383;28;20024;-69
2021/12/04 00:07:21;;;;;;;6.45;1.90;;;;;;;3.17;96.36;97427.66;5068052;28;20013;-69
2021/12/04 00:09:49;;;;;;;4.20;1.67;;;;;;;3.09;96.28;97419.06;5063575;28;20025;-69
2021/12/04 00:12:15;;;;;;;4.18;1.67;;;;;;;3.00;96.34;97407.91;5068765;28;20043;-69
2021/12/04 00:14:41;;;;;;;3.42;1.50;;;;;;;2.92;96.36;97400.16;5075246;28;20020;-69
2021/12/04 00:17:08;;;;;;;3.80;1.58;;;;;;;2.97;96.70;97398.38;5066649;28;20033;-69
2021/12/04 00:19:34;;;;;;;4.50;1.80;;;;;;;2.96;96.53;97398.38;5065005;28;20363;-69
2021/12/04 00:22:00;;;;;;;7.30;2.10;;;;;;;2.94;96.33;97387.16;5067984;28;20084;-69
2021/12/04 00:24:27;;;;;;;3.08;1.80;;;;;;;2.86;96.69;97382.03;5064378;28;20025;-69
2021/12/04 00:26:53;;;;;;;4.78;1.70;;;;;;;2.86;96.23;97362.97;5073995;28;20296;-69
2021/12/04 00:29:19;;;;;;;2.40;1.23;;;;;;;2.76;96.63;97372.59;5069809;28;20243;-69
2021/12/04 00:31:55;;;;;;;3.50;1.50;;;;;;;2.65;96.77;97360.59;5066868;28;20308;-69
2021/12/04 00:34:25;;;;;;;3.78;1.70;;;;;;;2.65;96.92;97358.84;5074571;28;20028;-69
2021/12/04 00:50:12;;;;;;;5.50;1.42;;;;;;;2.50;97.91;97320.00;5065628;28;20020;-69
2021/12/04 00:52:38;;;;;;;6.05;1.35;;;;;;;2.57;97.42;97308.72;5071805;28;20216;-69
2021/12/04 00:55:05;;;;;;;3.03;1.40;;;;;;;2.55;97.89;97315.66;5066399;28;20066;-69
2021/12/04 00:57:31;;;;;;;3.97;1.60;;;;;;;2.62;97.81;97312.09;5072553;28;20029;-69
2021/12/04 00:59:56;;;;;;;3.13;1.45;;;;;;;2.68;97.11;97313.78;5070376;28;20199;-69
2021/12/04 01:02:22;;;;;;;3.55;1.58;;;;;;;2.68;97.36;97306.00;5070343;28;20368;-69
2021/12/04 01:04:48;;;;;;;3.47;1.80;;;;;;;2.58;98.00;97300.03;5074585;28;20017;-69
2021/12/04 01:07:13;;;;;;;4.90;2.00;;;;;;;2.55;98.31;97288.81;5080525;28;20077;-69
2021/12/04 01:09:39;;;;;;;2.55;1.27;;;;;;;2.56;97.93;97291.38;5065913;28;20024;-69
2021/12/04 01:12:05;;;;;;;3.40;1.70;;;;;;;2.53;98.73;97290.56;5071642;28;20324;-69
2021/12/04 01:14:33;;;;;;;2.28;1.65;;;;;;;2.59;98.33;97286.16;5073025;28;20020;-69
2021/12/04 01:16:59;;;;;;;4.07;1.80;;;;;;;2.61;98.73;97284.44;5074076;28;20041;-69
2021/12/04 01:19:25;;;;;;;2.58;1.30;;;;;;;2.67;98.22;97273.97;5072399;28;20043;-69
2021/12/04 01:21:53;;;;;;;3.30;1.45;;;;;;;2.54;98.50;97261.13;5065296;28;20096;-69
2021/12/04 01:24:19;;;;;;;3.78;1.73;;;;;;;2.47;98.93;97255.16;5071738;28;20060;-69
2021/12/04 01:26:47;;;;;;;5.38;2.78;;;;;;;2.54;99.25;97255.94;5072308;28;20020;-69
2021/12/04 01:29:13;;;;;;;4.75;2.65;;;;;;;2.57;99.32;97251.59;5069420;28;20044;-69
2021/12/04 01:31:38;;;;;;;5.28;2.55;;;;;;;2.65;99.34;97248.91;5065239;28;20329;-69
2021/12/04 01:34:04;;;;;;;6.38;3.50;;;;;;;2.62;99.20;97249.78;5067785;28;20051;-69
2021/12/04 01:36:29;;;;;;;6.25;2.40;;;;;;;2.66;99.06;97246.25;5065633;28;20017;-69
2021/12/04 01:38:55;;;;;;;4.15;2.35;;;;;;;2.63;99.48;97243.72;5072797;28;20023;-69
2021/12/04 01:41:21;;;;;;;6.70;2.75;;;;;;;2.58;99.52;97247.22;5065562;28;20021;-69
2021/12/04 01:43:47;;;;;;;4.45;2.30;;;;;;;2.63;99.67;97248.94;5066060;28;20017;-69
2021/12/04 01:46:12;;;;;;;4.50;2.15;;;;;;;2.65;99.84;97244.56;5072930;28;20213;-69
2021/12/04 01:48:38;;;;;;;4.18;2.20;;;;;;;2.67;100.00;97232.41;5071703;28;20331;-69
2021/12/04 01:51:04;;;;;;;3.97;2.42;;;;;;;2.67;100.00;97227.22;5066689;28;20051;-69
2021/12/04 01:53:29;;;;;;;3.55;2.20;;;;;;;2.54;100.00;97220.44;5066976;28;20023;-69
2021/12/04 01:55:57;;;;;;;4.68;2.25;;;;;;;2.56;100.00;97212.66;5064820;28;20020;-69
2021/12/04 01:58:23;;;;;;;4.15;2.10;;;;;;;2.50;100.00;97208.34;5064988;28;20031;-69
2021/12/04 02:00:49;;;;;;;5.72;3.00;;;;;;;2.54;100.00;97210.06;5074016;28;20024;-69
2021/12/04 02:03:17;;;;;;;5.00;3.00;;;;;;;2.65;100.00;97200.41;5065859;28;20021;-69
2021/12/04 02:05:43;;;;;;;5.18;3.03;;;;;;;2.62;100.00;97203.03;5071949;28;20021;-69
2021/12/04 02:08:15;;;;;;;5.50;3.13;;;;;;;2.59;100.00;97182.28;5070275;28;20024;-69
2021/12/04 02:10:41;;;;;;;7.50;3.60;;;;;;;2.68;100.00;97187.38;5078437;28;20077;-69
2021/12/04 02:13:07;;;;;;;5.97;3.47;;;;;;;2.66;100.00;97180.50;5073618;28;20028;-69
2021/12/04 02:15:32;;;;;;;7.10;4.15;;;;;;;2.66;99.85;97189.13;5064267;28;20197;-69
2021/12/04 02:17:58;;;;;;;8.48;4.32;;;;;;;2.66;99.76;97178.72;5067307;28;20044;-69
2021/12/04 02:20:27;;;;;;;6.40;4.22;;;;;;;2.62;99.85;97173.63;5075832;28;20043;-69
2021/12/04 02:22:54;;;;;;;10.18;5.05;;;;;;;2.62;100.00;97161.47;5064222;28;20048;-69
2021/12/04 02:25:20;;;;;;;10.32;5.18;;;;;;;2.64;100.00;97172.72;5063987;28;20080;-69
2021/12/04 02:27:47;;;;;;;8.05;5.38;;;;;;;2.68;100.00;97165.72;5063906;28;20029;-69
2021/12/04 02:30:19;;;;;;;8.68;4.90;;;;;;;2.58;100.00;97159.81;5063606;28;20059;-69
2021/12/04 02:32:45;;;;;;;13.38;5.43;;;;;;;2.58;100.00;97164.13;5064413;28;20020;-69
2021/12/04 02:35:13;;;;;;;9.90;4.82;;;;;;;2.55;100.00;97162.44;5064164;28;20021;-69
2021/12/04 02:37:39;;;;;;;8.68;4.80;;;;;;;2.56;100.00;97156.34;5066653;28;20102;-69
2021/12/04 02:40:08;;;;;;;9.15;5.18;;;;;;;2.49;100.00;97144.31;5062475;28;20312;-69
2021/12/04 02:42:33;;;;;;;8.20;4.93;;;;;;;2.59;100.00;97132.94;5072731;28;20028;-69
2021/12/04 02:45:01;;;;;;;8.45;5.05;;;;;;;2.58;100.00;97131.25;5078967;28;20418;-69
2021/12/04 02:47:27;;;;;;;9.63;5.53;;;;;;;2.61;100.00;97123.41;5072664;28;20028;-69
2021/12/04 02:49:53;;;;;;;8.95;4.45;;;;;;;2.62;100.00;97124.28;5079631;28;20013;-69
2021/12/04 02:52:19;;;;;;;8.95;4.75;;;;;;;2.57;100.00;97121.75;5069872;28;20040;-69
2021/12/04 02:54:46;;;;;;;7.07;4.43;;;;;;;2.60;100.00;97116.50;5059123;28;20020;-69
2021/12/04 02:57:13;;;;;;;7.35;4.10;;;;;;;2.68;100.00;97111.19;5061395;28;20024;-69
2021/12/04 02:59:40;;;;;;;6.82;3.97;;;;;;;2.71;100.00;97112.03;5069981;28;20201;-69
2021/12/04 03:02:07;;;;;;;8.27;4.50;;;;;;;2.76;100.00;97102.44;5067222;28;20055;-69
2021/12/04 03:04:33;;;;;;;8.07;4.68;;;;;;;2.78;100.00;97098.06;5066487;28;20024;-69
2021/12/04 03:06:58;;;;;;;6.75;4.20;;;;;;;2.71;99.92;97096.44;5067315;28;20013;-69
2021/12/04 03:09:24;;;;;;;7.50;4.00;;;;;;;2.75;99.57;97095.50;5080512;28;20076;-69
2021/12/04 03:11:49;;;;;;;6.53;4.10;;;;;;;2.74;99.24;97088.59;5072217;28;20221;-69
2021/12/04 03:14:17;;;;;;;6.43;3.97;;;;;;;2.77;99.57;97080.78;5070293;28;20031;-69
2021/12/04 03:16:43;;;;;;;7.75;3.92;;;;;;;2.76;99.93;97068.69;5073860;28;20037;-69
2021/12/04 03:19:09;;;;;;;7.13;3.95;;;;;;;2.77;99.92;97072.97;5064084;28;20021;-69
2021/12/04 03:21:37;;;;;;;6.05;4.00;;;;;;;2.74;100.00;97057.44;5077554;28;20095;-69
2021/12/04 03:24:06;;;;;;;6.55;3.33;;;;;;;2.76;99.89;97060.88;5075996;28;20024;-69
2021/12/04 03:26:32;;;;;;;5.85;3.42;;;;;;;2.72;99.74;97059.19;5064132;28;20020;-69
2021/12/04 03:29:02;;;;;;;6.00;4.00;;;;;;;2.79;99.80;97055.66;5061195;28;20021;-69
2021/12/04 03:32:24;;;;;;;5.63;3.45;;;;;;;2.84;100.00;97042.56;5061198;28;20017;-69
2021/12/04 03:40:08;;;;;;;5.65;3.40;;;;;;;2.64;100.00;97024.69;5075780;28;20072;-69
2021/12/04 03:42:40;;;;;;;4.55;2.85;;;;;;;2.72;100.00;97025.41;5064162;28;20025;-69
2021/12/04 03:45:08;;;;;;;3.78;2.50;;;;;;;2.79;100.00;97034.88;5063538;28;20028;-69
2021/12/04 03:47:37;;;;;;;6.57;3.30;;;;;;;2.85;100.00;97026.94;5062454;28;20024;-69
2021/12/04 03:50:03;;;;;;;4.55;3.20;;;;;;;2.83;100.00;97017.47;5069697;28;20205;-69
2021/12/04 03:52:28;;;;;;;5.95;2.97;;;;;;;2.84;100.00;97012.25;5063474;28;20021;-69
2021/12/04 03:54:53;;;;;;;4.40;3.20;;;;;;;2.83;99.92;97002.75;5071430;28;20025;-69
2021/12/04 03:57:19;;;;;;;4.50;2.45;;;;;;;2.77;99.84;97002.84;5065497;28;20021;-69
2021/12/04 03:59:47;;;;;;;3.33;2.28;;;;;;;2.83;100.00;97005.34;5069714;28;20017;-69
2021/12/04 04:02:17;;;;;;;3.92;2.70;;;;;;;2.82;100.00;97003.66;5078947;28;20357;-69
2021/12/04 04:04:42;;;;;;;3.90;2.28;;;;;;;2.82;100.00;96993.25;5073535;28;20025;-69
2021/12/04 04:07:08;;;;;;;4.72;2.75;;;;;;;2.81;100.00;96996.72;5075577;28;20024;-70
2021/12/04 04:09:35;;;;;;;3.90;2.40;;;;;;;2.93;100.00;96986.16;5070770;28;20029;-70
2021/12/04 04:12:01;;;;;;;3.63;2.30;;;;;;;2.96;99.76;96990.44;5063350;28;20056;-70
2021/12/04 04:14:27;;;;;;;3.35;2.17;;;;;;;2.87;99.75;96978.44;5064169;28;20029;-70
2021/12/04 04:16:55;;;;;;;5.07;2.40;;;;;;;2.95;100.00;96979.19;5073102;28;20103;-70
2021/12/04 04:19:21;;;;;;;4.22;2.40;;;;;;;2.91;100.00;96985.28;5074637;28;20059;-70
2021/12/04 04:21:47;;;;;;;3.20;1.85;;;;;;;3.02;99.87;96991.19;5071246;28;20021;-70
2021/12/04 04:24:15;;;;;;;3.90;2.55;;;;;;;3.05;100.00;96982.47;5066967;28;20040;-70
2021/12/04 04:26:42;;;;;;;3.13;2.15;;;;;;;3.01;99.77;96983.44;5066863;28;20088;-70
2021/12/04 04:29:08;;;;;;;3.05;2.05;;;;;;;3.06;99.66;96979.88;5078596;28;20031;-70
2021/12/04 04:31:35;;;;;;;3.53;2.08;;;;;;;3.12;99.77;96977.16;5068371;28;20052;-70
2021/12/04 04:34:05;;;;;;;3.17;2.05;;;;;;;3.06;99.97;96974.66;5059148;28;20048;-70
2021/12/04 04:39:56;;;;;;;2.05;1.50;;;;;;;3.01;100.00;96963.47;5075709;28;20348;-70
2021/12/04 05:14:31;;;;;;;2.88;1.75;;;;;;;3.25;100.00;96931.88;5066933;28;20093;-70
2021/12/04 05:17:09;;;;;;;2.63;1.50;;;;;;;3.28;99.79;96918.81;5069391;28;20044;-70
2021/12/04 05:19:52;;;;;;;1.80;1.40;;;;;;;3.28;99.61;96926.63;5068052;28;20025;-70
2021/12/04 05:22:17;;;;;;;2.20;1.42;;;;;;;3.27;99.87;96914.53;5067892;28;20083;-70
2021/12/04 05:24:43;;;;;;;1.88;1.40;;;;;;;3.32;100.00;96911.84;5066952;28;20016;-70
2021/12/04 05:27:09;;;;;;;1.63;1.23;;;;;;;3.26;99.65;96911.94;5070246;28;20022;-70
2021/12/04 05:29:35;;;;;;;2.70;1.48;;;;;;;3.28;100.00;96905.81;5072489;28;20204;-70
2021/12/04 05:32:01;;;;;;;1.50;1.15;;;;;;;3.33;99.70;96904.00;5065305;28;20025;-70
2021/12/04 05:34:27;;;;;;;1.77;1.30;;;;;;;3.28;99.76;96904.97;5082444;28;20261;-70
2021/12/04 05:36:52;;;;;;;1.65;1.15;;;;;;;3.26;100.00;96902.38;5072370;28;20024;-70
2021/12/04 05:39:18;;;;;;;2.13;1.40;;;;;;;3.31;100.00;96897.97;5065950;28;20055;-70
2021/12/04 05:41:43;;;;;;;3.15;1.40;;;;;;;3.33;99.46;96897.94;5065930;28;20056;-70
2021/12/04 05:44:10;;;;;;;1.60;1.30;;;;;;;3.15;99.93;96893.94;5081808;28;20212;-70
2021/12/04 05:46:53;;;;;;;1.13;1.00;;;;;;;3.24;99.81;96888.59;5065653;28;20023;-70
2021/12/04 05:49:24;;;;;;;1.50;1.17;;;;;;;3.29;99.82;96885.91;5065372;28;20021;-70
2021/12/04 05:57:03;;;;;;;2.05;1.20;;;;;;;3.29;100.00;96878.94;5075516;28;20039;-70
2021/12/04 05:59:29;;;;;;;1.58;1.02;;;;;;;3.31;100.00;96884.09;5070249;28;20033;-70
2021/12/04 06:01:54;;;;;;;3.38;1.15;;;;;;;3.34;100.00;96879.72;5065367;28;20021;-70
2021/12/04 06:04:20;;;;;;;1.58;1.23;;;;;;;3.32;99.72;96876.28;5073373;28;20083;-69
2021/12/04 06:06:45;;;;;;;2.17;1.30;;;;;;;3.36;100.00;96875.31;5069604;28;20220;-70
2021/12/04 06:09:11;;;;;;;1.75;1.23;;;;;;;3.41;100.00;96876.09;5072588;28;20097;-70
2021/12/04 06:11:36;;;;;;;1.88;1.40;;;;;;;3.42;100.00;96867.41;5065408;28;20051;-70
2021/12/04 06:14:03;;;;;;;1.58;1.33;;;;;;;3.32;100.00;96876.28;5066372;28;20029;-70
2021/12/04 06:16:29;;;;;;;1.65;1.30;;;;;;;3.37;100.00;96869.25;5064558;28;20031;-70
2021/12/04 06:18:56;;;;;;;2.22;1.30;;;;;;;3.40;100.00;96877.00;5065910;28;20056;-70
2021/12/04 06:24:06;;;;;;;3.13;1.60;;;;;;;3.39;100.00;96867.47;5064511;28;20024;-70
2021/12/04 06:26:33;;;;;;;2.50;1.35;;;;;;;3.48;100.00;96867.28;5073352;28;20021;-70
2021/12/04 06:28:59;;;;;;;2.97;1.50;;;;;;;3.49;100.00;96863.84;5058365;28;20058;-70
2021/12/04 06:31:25;;;;;;;3.60;1.63;;;;;;;3.45;100.00;96861.31;5073409;28;20061;-70
2021/12/04 06:33:51;;;;;;;2.38;1.70;;;;;;;3.48;100.00;96858.66;5078099;28;20020;-70
2021/12/04 06:36:17;;;;;;;3.55;1.80;;;;;;;3.43;100.00;96858.75;5073784;28;20084;-70
2021/12/04 06:38:43;;;;;;;2.03;1.60;;;;;;;3.51;100.00;96854.22;5065739;28;20388;-70
2021/12/04 06:41:08;;;;;;;2.75;1.58;;;;;;;3.48;99.78;96856.91;5063241;28;20013;-70
2021/12/04 06:43:36;;;;;;;10.38;4.97;;;;;;;3.39;100.00;96851.88;5065821;28;20021;-70
2021/12/04 06:46:04;;;;;;;6.32;3.67;;;;;;;3.38;100.00;96855.38;5063994;28;20354;-70
2021/12/04 06:48:41;;;;;;;8.10;4.25;;;;;;;3.53;100.00;96856.81;5074764;28;20185;-70
2021/12/04 06:53:44;;;;;;;10.73;6.00;;;;;;;3.47;100.00;96860.41;5068452;28;20206;-70
2021/12/04 06:56:12;;;;;;;11.32;5.97;;;;;;;3.36;100.00;96857.13;5066485;28;20032;-70
2021/12/04 06:58:38;;;;;;;7.93;4.63;;;;;;;3.49;100.00;96856.03;5064017;28;20316;-70
2021/12/04 07:01:06;;;;;;;9.73;5.00;;;;;;;3.54;100.00;96859.38;5070335;28;20040;-70
2021/12/04 07:03:32;;;;;;;7.10;4.28;;;;;;;3.59;100.00;96860.16;5061238;28;20044;-70
2021/12/04 07:05:57;;;;;;;7.95;4.47;;;;;;;3.47;100.00;96860.41;5062616;28;20040;-70
2021/12/04 07:08:23;;;;;;;7.93;4.47;;;;;;;3.52;100.00;96858.56;5070707;28;20267;-70
2021/12/04 07:10:48;;;;;;;7.53;4.15;;;;;;;3.51;100.00;96856.00;5064432;28;20048;-70
2021/12/04 07:13:14;;;;;;;9.52;5.43;;;;;;;3.58;100.00;96849.78;5067297;28;20035;-70
2021/12/04 07:15:43;;;;;;;10.35;5.38;;;;;;;3.65;100.00;96854.84;5065719;28;20044;-70
2021/12/04 07:18:08;;;;;;;13.10;6.93;;;;;;;3.58;100.00;96852.38;5065754;28;20037;-70
2021/12/04 07:20:34;;;;;;;13.10;7.13;;;;;;;3.54;100.00;96848.97;5068817;28;20386;-70
2021/12/04 07:22:59;;;;;;;11.80;6.15;;;;;;;3.48;100.00;96841.28;5062251;28;20056;-70
2021/12/04 07:25:26;;;;;;;11.80;5.55;;;;;;;3.45;100.00;96840.53;5062530;28;20049;-70
2021/12/04 07:27:51;;;;;;;11.35;5.75;;;;;;;3.51;100.00;96845.59;5077001;28;20028;-70
2021/12/04 07:30:21;;;;;;;10.70;4.70;;;;;;;3.51;100.00;96846.44;5064193;28;20296;-70
2021/12/04 07:32:47;;;;;;;7.50;4.43;;;;;;;3.48;100.00;96841.28;5067616;28;20025;-70
2021/12/04 07:35:13;;;;;;;8.00;4.53;;;;;;;3.46;100.00;96837.88;5067384;28;20032;-70
2021/12/04 07:37:39;;;;;;;9.15;5.15;;;;;;;3.56;100.00;96838.53;5063366;28;20213;-70
2021/12/04 07:40:05;;;;;;;7.68;4.40;;;;;;;3.66;100.00;96840.94;5068410;28;20021;-70
2021/12/04 07:42:31;;;;;;;12.73;4.28;;;;;;;3.68;100.00;96839.16;5064262;28;20366;-70
2021/12/04 07:44:58;;;;;;;8.13;4.82;;;;;;;3.72;100.00;96838.19;5070541;28;20017;-70
2021/12/04 07:47:24;;;;;;;8.07;4.57;;;;;;;3.80;100.00;96838.03;5063163;28;20062;-70
2021/12/04 07:49:50;;;;;;;8.93;4.43;;;;;;;3.81;100.00;96829.34;5063490;28;20304;-70
2021/12/04 07:52:15;;;;;;;8.73;4.25;;;;;;;3.78;100.00;96835.47;5063100;28;20043;-70
2021/12/04 07:54:42;;;;;;;8.13;5.03;;;;;;;3.78;100.00;96835.47;5066972;28;20025;-70
2021/12/04 07:57:07;;;;;;;8.05;4.78;;;;;;;3.68;100.00;96833.97;5068825;28;20044;-70
2021/12/04 07:59:33;;;;;;;10.30;5.25;;;;;;;3.68;100.00;96839.16;5067383;28;20013;-70
2021/12/04 08:01:58;;;;;;;10.57;5.35;;;;;;;3.68;100.00;96828.75;5066779;28;20021;-70
2021/12/04 08:04:24;;;;;;;11.07;4.90;;;;;;;3.66;100.00;96829.66;5067095;28;20051;-70
2021/12/04 08:06:51;;;;;;;16.73;7.90;;;;;;;3.66;100.00;96835.72;5075437;28;20025;-70
2021/12/04 08:09:17;;;;;;;10.32;7.28;;;;;;;3.73;100.00;96829.50;5068255;28;20083;-70
2021/12/04 08:11:42;;;;;;;12.13;6.55;;;;;;;3.72;100.00;96834.72;5076699;28;20324;-70
2021/12/04 08:14:08;;;;;;;9.52;5.20;;;;;;;3.80;100.00;96831.06;5069130;28;20020;-70
2021/12/04 08:16:33;;;;;;;5.50;3.35;;;;;;;3.92;100.00;96824.72;5068324;28;20328;-70
2021/12/04 08:18:59;;;;;;;6.85;4.05;;;;;;;3.98;100.00;96827.22;5072085;28;20042;-70
2021/12/04 08:21:25;;;;;;;7.90;4.18;;;;;;;3.99;100.00;96818.53;5070624;28;20292;-70
2021/12/04 08:23:51;;;;;;;8.70;4.72;;;;;;;3.99;100.00;96819.38;5067381;28;20020;-70
2021/12/04 08:26:17;;;;;;;6.32;3.55;;;;;;;4.14;100.00;96832.03;5070607;28;20020;-70
2021/12/04 08:28:43;;;;;;;10.32;4.78;;;;;;;4.10;100.00;96833.00;5071254;28;20021;-70
2021/12/04 08:31:09;;;;;;;13.95;5.88;;;;;;;4.13;100.00;96832.94;5083749;28;20380;-70
2021/12/04 08:33:35;;;;;;;35.42;11.35;;;;;;;4.03;100.00;96831.44;5071909;28;20036;-70
2021/12/04 08:36:03;;;;;;;40.58;13.57;;;;;;;4.01;100.00;96834.94;5069384;28;20067;-70
2021/12/04 08:38:29;;;;;;;31.38;11.40;;;;;;;4.08;100.00;96824.38;5064704;28;20013;-70
2021/12/04 08:40:54;;;;;;;41.83;19.73;;;;;;;4.06;100.00;96820.97;5071607;28;20066;-70
2021/12/04 08:43:20;;;;;;;87.40;29.83;;;;;;;4.10;100.00;96820.00;5068897;28;20146;-70
2021/12/04 08:45:45;;;;;;;83.10;30.60;;;;;;;4.13;100.00;96812.13;5074769;28;20084;-70
2021/12/04 08:48:12;;;;;;;87.70;33.00;;;;;;;4.12;100.00;96815.59;5068373;28;20043;-70
2021/12/04 08:50:38;;;;;;;93.10;31.13;;;;;;;4.21;100.00;96815.38;5068279;28;20016;-70
2021/12/04 08:53:05;;;;;;;74.85;25.92;;;;;;;4.25;100.00;96816.19;5065318;28;20036;-70
2021/12/04 08:55:32;;;;;;;71.53;24.95;;;;;;;4.33;100.00;96820.31;5065054;28;20111;-70
2021/12/04 08:57:59;;;;;;;31.80;12.13;;;;;;;4.36;100.00;96822.84;5071232;28;20021;-69
2021/12/04 09:00:39;;;;;;;19.15;8.55;;;;;;;4.53;100.00;96813.75;5065253;28;20024;-69
2021/12/04 09:03:06;;;;;;;16.45;8.30;;;;;;;4.55;100.00;96804.16;5058461;28;20025;-70
2021/12/04 09:05:32;;;;;;;11.15;5.57;;;;;;;4.52;100.00;96809.44;5064986;28;20067;-70
2021/12/04 09:07:57;;;;;;;11.20;4.88;;;;;;;4.59;100.00;96805.78;5062746;28;20021;-69
2021/12/04 09:10:23;;;;;;;9.45;5.18;;;;;;;4.62;100.00;96805.72;5065080;28;20029;-69
2021/12/04 09:12:49;;;;;;;9.82;5.25;;;;;;;4.66;100.00;96807.34;5064838;28;20031;-69
2021/12/04 09:15:20;;;;;;;10.63;5.50;;;;;;;4.74;100.00;96805.41;5064693;28;20035;-69
2021/12/04 09:17:46;;;;;;;8.90;5.55;;;;;;;4.66;100.00;96807.34;5071923;28;20028;-70
2021/12/04 09:20:15;;;;;;;10.30;6.10;;;;;;;4.66;100.00;96804.75;5067834;28;20029;-68
2021/12/04 09:22:41;;;;;;;12.20;6.82;;;;;;;4.68;100.00;96810.78;5084945;28;20026;-68
2021/12/04 09:25:15;;;;;;;16.23;8.43;;;;;;;4.68;100.00;96810.78;5071363;28;20084;-69
2021/12/04 10:06:03;;;;;;;3.88;1.02;;;;;;;8.01;100.00;96799.97;5057063;28;20100;-68
2021/12/04 10:15:19;;;;;;;1.05;0.95;;;;;;;8.18;100.00;96797.56;5055652;28;20023;-68
2021/12/04 10:33:37;;;;;;;;;;;;;;;8.44;100.00;96771.22;5066556;28;20028;-68
2021/12/04 10:36:03;;;;;;;0.85;0.57;;;;;;;8.43;100.00;96781.75;5076526;28;20198;-68
2021/12/04 10:38:37;;;;;;;1.67;0.82;;;;;;;8.43;100.00;96766.91;5070866;28;20040;-68
2021/12/04 10:41:03;;;;;;;1.10;0.80;;;;;;;8.43;100.00;96774.75;5074197;28;20330;-68
2021/12/04 10:43:31;;;;;;;3.30;0.85;;;;;;;8.44;100.00;96773.84;5074449;28;20036;-68
2021/12/04 10:46:04;;;;;;;0.63;0.60;;;;;;;8.48;100.00;96758.84;5072958;28;20020;-68
2021/12/04 10:48:32;;;;;;;3.03;0.90;;;;;;;8.46;100.00;96756.28;5067294;28;20016;-68
2021/12/04 10:53:53;;;;;;;0.50;0.50;;;;;;;8.50;100.00;96742.13;5062463;28;20024;-68
2021/12/04 10:56:36;;;;;;;1.42;0.80;;;;;;;8.60;100.00;96750.44;5062703;28;20028;-68
2021/12/04 10:59:17;;;;;;;1.65;0.70;;;;;;;8.60;100.00;96732.97;5061667;28;20248;-68
2021/12/04 11:26:46;;;;;;;1.13;0.70;;;;;;;8.70;100.00;96710.66;5063194;28;20025;-68
2021/12/04 11:42:53;;;;;;;1.25;0.70;;;;;;;8.89;100.00;96712.53;5040935;28;20068;-68
2021/12/04 11:45:29;;;;;;;1.33;0.70;;;;;;;8.91;100.00;96689.69;5063208;28;20297;-68
2021/12/04 11:47:57;;;;;;;3.05;0.70;;;;;;;8.86;100.00;96695.13;5063105;28;20044;-68
2021/12/04 11:50:26;;;;;;;1.40;0.80;;;;;;;8.87;100.00;96688.13;5062832;28;20087;-69
2021/12/04 11:52:55;;;;;;;0.68;0.57;;;;;;;8.87;100.00;96693.38;5062252;28;20029;-69
2021/12/04 11:55:24;;;;;;;0.90;0.77;;;;;;;8.92;100.00;96699.28;5063163;28;20111;-69
2021/12/04 11:57:49;;;;;;;1.33;0.90;;;;;;;8.90;100.00;96699.34;5061895;28;20017;-69
2021/12/04 12:00:28;;;;;;;1.75;0.95;;;;;;;8.93;100.00;96693.97;5061533;28;20028;-69
2021/12/04 12:03:20;;;;;;;0.75;0.55;;;;;;;8.91;100.00;96687.06;5061493;28;20045;-69
2021/12/04 12:05:47;;;;;;;1.48;0.85;;;;;;;8.87;100.00;96688.13;5062683;28;20029;-69
2021/12/04 12:08:26;;;;;;;0.95;0.68;;;;;;;8.90;100.00;96669.63;5062643;28;20047;-67
2021/12/04 12:10:54;;;;;;;0.85;0.50;;;;;;;8.85;100.00;96679.47;5062147;28;20247;-68
2021/12/04 12:13:45;;;;;;;0.40;0.40;;;;;;;8.85;100.00;96669.00;5059959;28;20040;-68
2021/12/04 12:16:23;;;;;;;0.40;0.40;;;;;;;8.82;100.00;96669.13;5057503;28;20032;-68
2021/12/04 12:18:57;;;;;;;0.55;0.47;;;;;;;8.82;100.00;96678.69;5061977;28;20042;-68
2021/12/04 12:21:30;;;;;;;0.57;0.47;;;;;;;8.89;100.00;96670.56;5062081;28;20017;-68
2021/12/04 12:33:05;;;;;;;1.17;0.82;;;;;;;8.92;100.00;96678.28;5062656;28;20095;-68
2021/12/04 12:38:53;;;;;;;1.30;0.68;;;;;;;8.97;100.00;96690.28;5062382;28;20048;-68
2021/12/04 12:41:41;;;;;;;0.50;0.50;;;;;;;8.99;100.00;96687.59;5049107;28;20221;-68
2021/12/04 12:44:26;;;;;;;1.88;0.43;;;;;;;8.94;100.00;96684.31;5065595;28;20020;-68
2021/12/04 12:46:56;;;;;;;1.13;0.60;;;;;;;8.94;100.00;96684.31;5060994;28;20088;-68
2021/12/04 12:49:30;;;;;;;0.80;0.50;;;;;;;8.91;100.00;96689.69;5064482;28;20205;-68
2021/12/04 12:52:07;;;;;;;1.00;0.68;;;;;;;8.89;100.00;96691.53;5062571;28;20085;-68
2021/12/04 12:54:59;;;;;;;0.70;0.68;;;;;;;8.93;100.00;96677.34;5064609;28;20087;-68
2021/12/04 12:57:30;;;;;;;1.20;0.55;;;;;;;8.90;100.00;96690.59;5065056;28;20021;-68
2021/12/04 13:14:09;;;;;;;4.43;0.80;;;;;;;8.89;100.00;96734.34;5064855;28;20104;-68
2021/12/04 13:16:35;;;;;;;2.22;0.73;;;;;;;8.87;100.00;96730.09;5063456;28;20079;-67
2021/12/04 13:19:07;;;;;;;1.23;0.70;;;;;;;8.79;100.00;96743.53;5064973;28;20320;-67
2021/12/04 13:21:36;;;;;;;10.38;1.00;;;;;;;8.82;100.00;96749.50;5057809;28;20032;-67
2021/12/04 13:24:02;;;;;;;2.78;0.77;;;;;;;8.85;100.00;96742.44;5070067;28;20309;-67
2021/12/04 13:26:31;;;;;;;2.78;0.50;;;;;;;8.79;100.00;96744.38;5070270;28;20246;-66
2021/12/04 13:28:59;;;;;;;0.95;0.40;;;;;;;8.86;100.00;96759.88;5076992;28;20031;-66
2021/12/04 13:31:26;;;;;;;2.38;0.60;;;;;;;8.87;100.00;96766.81;5068285;28;20021;-66
2021/12/04 13:33:53;;;;;;;2.67;0.80;;;;;;;8.85;100.00;96752.94;5067976;28;20035;-65
2021/12/04 13:36:25;;;;;;;1.13;0.60;;;;;;;8.82;100.00;96747.81;5073597;28;20054;-65
2021/12/04 13:39:12;;;;;;;0.70;0.35;;;;;;;8.80;100.00;96740.84;5075069;28;20316;-66
2021/12/04 13:41:40;;;;;;;0.95;0.40;;;;;;;8.82;100.00;96755.69;5067351;28;20025;-67
2021/12/04 13:44:07;;;;;;;2.83;0.40;;;;;;;8.82;100.00;96754.75;5076260;28;20052;-66
2021/12/04 13:46:45;;;;;;;0.55;0.40;;;;;;;8.85;100.00;96753.75;5058892;28;20059;-66
2021/12/04 13:49:12;;;;;;;0.50;0.40;;;;;;;8.85;100.00;96752.94;5066256;28;20408;-68
2021/12/04 13:51:38;;;;;;;0.77;0.43;;;;;;;8.84;100.00;96746.81;5072851;28;20321;-68
2021/12/04 13:54:04;;;;;;;2.00;0.80;;;;;;;8.87;100.00;96772.06;5080910;28;20043;-68
2021/12/04 13:56:33;;;;;;;1.90;0.55;;;;;;;8.86;100.00;96759.88;5067337;28;20095;-67
2021/12/04 13:59:01;;;;;;;0.60;0.40;;;;;;;8.85;100.00;96763.41;5066662;28;20025;-67
2021/12/04 14:01:30;;;;;;;0.57;0.30;;;;;;;8.84;100.00;96767.81;5073444;28;20044;-67
2021/12/04 14:03:58;;;;;;;3.80;0.50;;;;;;;8.85;100.00;96779.16;5083883;28;20059;-66
2021/12/04 14:06:24;;;;;;;1.77;0.75;;;;;;;8.89;100.00;96780.72;5084057;28;20054;-67
2021/12/04 14:09:03;;;;;;;0.82;0.57;;;;;;;8.89;100.00;96771.06;5073456;28;20021;-67
2021/12/04 14:11:34;;;;;;;1.17;0.63;;;;;;;8.93;100.00;96761.31;5064714;28;20025;-67
2021/12/04 14:14:13;;;;;;;1.35;0.50;;;;;;;8.96;100.00;96761.19;5056950;28;20039;-67
2021/12/04 14:16:40;;;;;;;2.05;0.45;;;;;;;9.00;100.00;96760.13;5063951;28;20029;-67
2021/12/04 14:19:20;;;;;;;0.60;0.40;;;;;;;9.06;100.00;96755.47;5067256;28;20043;-67
2021/12/04 14:22:05;;;;;;;0.93;0.80;;;;;;;9.05;100.00;96766.03;5061953;28;20036;-67
2021/12/04 14:24:36;;;;;;;0.90;0.70;;;;;;;9.11;100.00;96765.78;5063891;28;20088;-66
2021/12/04 14:27:04;;;;;;;1.42;0.77;;;;;;;9.14;100.00;96760.41;5075036;28;20321;-65
2021/12/04 14:29:32;;;;;;;1.60;0.80;;;;;;;9.20;100.00;96754.88;5060837;28;20389;-65
2021/12/04 14:31:58;;;;;;;4.47;0.80;;;;;;;9.13;100.00;96762.16;5068855;28;20033;-65
2021/12/04 14:34:25;;;;;;;4.80;0.88;;;;;;;9.13;100.00;96759.53;5070166;28;20024;-65
2021/12/04 14:37:09;;;;;;;1.20;0.85;;;;;;;9.16;100.00;96771.66;5072589;28;20020;-65
2021/12/04 14:39:35;;;;;;;2.80;0.88;;;;;;;9.08;100.00;96760.66;5066985;28;20208;-65
2021/12/04 14:42:09;;;;;;;1.17;0.77;;;;;;;9.13;100.00;96764.78;5068800;28;20027;-65
2021/12/04 14:44:35;;;;;;;2.63;1.13;;;;;;;9.16;100.00;96763.78;5071121;28;20092;-65
2021/12/04 14:47:04;;;;;;;4.10;1.33;;;;;;;9.12;100.00;96751.72;5064880;28;20036;-65
2021/12/04 14:49:30;;;;;;;1.70;1.10;;;;;;;9.12;100.00;96762.22;5065607;28;20029;-65
2021/12/04 14:51:55;;;;;;;2.42;0.80;;;;;;;9.12;100.00;96756.97;5066760;28;20058;-65